Terminal Aerodrome Forecast
Issued by NWS Spokane, WA

Home | Current Version | Previous Version | Text Only | Print | Product List | Glossary On
Versions: 1 2 3 4 5 6 7 8 9 10 11 12
000
FTUS46 KOTX 231130
TAFGEG
TAF
KGEG 231130Z 2312/2412 15006KT P6SM SKC
     FM231900 22009G17KT P6SM FEW060
     FM232300 24014G21KT P6SM FEW060
     FM240200 25012KT P6SM SKC
     FM240400 29009KT P6SM SKC=

USA.gov is the U.S. government's official web portal to all federal, state and local government web resources and services.